createdAt,value
2019-05-09T00:00:04.162Z,16.75
2019-05-09T00:01:04.091Z,18.95
2019-05-09T00:02:04.045Z,19.04
2019-05-09T00:03:04.034Z,17.43
2019-05-09T00:04:04.018Z,16.47
2019-05-09T00:05:04.017Z,16.28
2019-05-09T00:06:04.630Z,15.61
2019-05-09T00:07:03.995Z,15.90
2019-05-09T00:08:03.988Z,15.70
2019-05-09T00:09:03.975Z,15.80
2019-05-09T00:10:04.222Z,15.70
2019-05-09T00:11:03.960Z,15.13
2019-05-09T00:12:03.966Z,15.13
2019-05-09T00:13:03.942Z,15.23
2019-05-09T00:14:04.618Z,15.32
2019-05-09T00:15:04.566Z,15.13
2019-05-09T00:16:03.927Z,15.13
2019-05-09T00:17:03.976Z,15.23
2019-05-09T00:18:04.133Z,15.13
2019-05-09T00:19:03.882Z,15.32
2019-05-09T00:20:03.877Z,15.23
2019-05-09T00:21:04.194Z,15.32
2019-05-09T00:22:03.857Z,15.23
2019-05-09T00:23:03.845Z,15.23
2019-05-09T00:24:03.835Z,14.84
2019-05-09T00:25:03.832Z,14.94
2019-05-09T00:26:04.285Z,15.03
2019-05-09T00:27:03.991Z,15.03
2019-05-09T00:28:04.220Z,15.13
2019-05-09T00:29:03.936Z,15.13
2019-05-09T00:30:03.971Z,20.85
2019-05-09T00:31:03.776Z,21.03
2019-05-09T00:32:03.768Z,17.99
2019-05-09T00:33:03.879Z,16.75
2019-05-09T00:34:04.286Z,15.99
2019-05-09T00:35:04.071Z,15.80
2019-05-09T00:36:04.378Z,15.51
2019-05-09T00:37:03.720Z,19.81
2019-05-09T00:38:04.426Z,20.84
2019-05-09T00:39:04.148Z,17.99
2019-05-09T00:40:04.102Z,16.56
2019-05-09T00:41:03.947Z,15.70
2019-05-09T00:42:04.349Z,15.23
2019-05-09T00:43:04.108Z,15.13
2019-05-09T00:44:03.654Z,14.75
2019-05-09T00:45:04.194Z,15.13
2019-05-09T00:46:04.337Z,15.13
2019-05-09T00:47:04.253Z,14.94
2019-05-09T00:48:03.638Z,14.84
2019-05-09T00:49:05.060Z,14.94
2019-05-09T00:50:05.193Z,15.03
2019-05-09T00:51:03.674Z,14.94
2019-05-09T00:52:03.736Z,15.03
2019-05-09T00:53:03.579Z,15.13
2019-05-09T00:54:04.177Z,14.94
2019-05-09T00:55:03.996Z,14.94
2019-05-09T00:56:04.276Z,15.13
2019-05-09T00:57:03.536Z,15.03
2019-05-09T00:58:04.179Z,14.75
2019-05-09T00:59:04.186Z,14.94
2019-05-09T01:00:04.074Z,15.13
2019-05-09T01:01:04.360Z,15.13
2019-05-09T01:02:04.083Z,15.03
2019-05-09T01:03:04.121Z,14.75
2019-05-09T01:04:04.285Z,14.94
2019-05-09T01:05:04.218Z,15.03
2019-05-09T01:06:04.224Z,15.23
2019-05-09T01:07:03.657Z,15.13
2019-05-09T01:08:04.211Z,14.84
2019-05-09T01:09:04.204Z,15.03
2019-05-09T01:10:04.284Z,14.94
2019-05-09T01:11:11.730Z,14.94
2019-05-09T01:12:03.983Z,14.75
2019-05-09T01:13:03.732Z,14.84
2019-05-09T01:14:03.706Z,15.13
2019-05-09T01:15:03.562Z,15.13
2019-05-09T01:16:04.434Z,15.23
2019-05-09T01:17:04.217Z,15.03
2019-05-09T01:18:04.399Z,15.03
2019-05-09T01:19:03.815Z,15.13
2019-05-09T01:20:03.585Z,14.94
2019-05-09T01:21:04.024Z,15.03
2019-05-09T01:22:03.875Z,15.32
2019-05-09T01:23:03.598Z,15.51
2019-05-09T01:24:03.549Z,15.13
2019-05-09T01:25:04.175Z,14.84
2019-05-09T01:26:03.999Z,15.03
2019-05-09T01:27:03.759Z,15.13
2019-05-09T01:28:03.493Z,15.13
2019-05-09T01:29:04.378Z,15.03
2019-05-09T01:30:04.621Z,15.03
2019-05-09T01:31:04.089Z,14.84
2019-05-09T01:32:03.594Z,20.00
2019-05-09T01:33:03.705Z,22.27
2019-05-09T01:34:04.148Z,22.45
2019-05-09T01:35:03.867Z,15.98
2019-05-09T01:36:03.868Z,14.65
2019-05-09T01:37:03.577Z,12.37
2019-05-09T01:38:03.689Z,14.18
2019-05-09T01:39:03.317Z,12.74
2019-05-09T01:40:04.294Z,11.98
2019-05-09T01:41:04.015Z,11.89
2019-05-09T01:42:03.425Z,11.89
2019-05-09T01:43:04.514Z,12.08
2019-05-09T01:44:04.121Z,12.08
2019-05-09T01:45:03.737Z,12.37
2019-05-09T01:46:03.753Z,12.18
2019-05-09T01:47:03.939Z,12.08
2019-05-09T01:48:03.372Z,11.98
2019-05-09T01:49:03.303Z,11.79
2019-05-09T01:50:03.899Z,12.18
2019-05-09T01:51:03.383Z,12.18
2019-05-09T01:52:03.497Z,12.08
2019-05-09T01:53:04.002Z,11.89
2019-05-09T01:54:03.785Z,11.89
2019-05-09T01:55:03.716Z,11.89
2019-05-09T01:56:03.820Z,12.18
2019-05-09T01:57:03.524Z,12.37
2019-05-09T01:58:03.414Z,12.46
2019-05-09T01:59:03.145Z,12.37
2019-05-09T02:00:04.193Z,12.65
2019-05-09T02:01:03.705Z,12.55
2019-05-09T02:02:08.185Z,12.46
2019-05-09T02:03:03.334Z,12.46
2019-05-09T02:04:04.055Z,12.65
2019-05-09T02:05:04.132Z,12.55
2019-05-09T02:06:03.703Z,12.65
2019-05-09T02:07:04.013Z,12.55
2019-05-09T02:08:03.390Z,12.55
2019-05-09T02:09:03.546Z,12.46
2019-05-09T02:10:03.507Z,12.55
2019-05-09T02:11:03.728Z,12.46
2019-05-09T02:12:03.771Z,12.55
2019-05-09T02:13:03.163Z,12.65
2019-05-09T02:14:04.122Z,12.74
2019-05-09T02:15:03.948Z,12.46
2019-05-09T02:16:03.422Z,12.74
2019-05-09T02:17:10.475Z,12.37
2019-05-09T02:18:56.771Z,12.37
2019-05-09T02:19:56.729Z,12.27
2019-05-09T02:20:56.724Z,12.46
2019-05-09T02:21:56.711Z,12.18
2019-05-09T02:22:56.704Z,12.74
2019-05-09T02:23:56.698Z,12.84
2019-05-09T02:24:56.681Z,12.74
2019-05-09T02:25:56.675Z,12.74
2019-05-09T02:26:56.665Z,12.74
2019-05-09T02:27:56.658Z,12.74
2019-05-09T02:28:56.649Z,12.74
2019-05-09T02:29:56.633Z,12.74
2019-05-09T02:30:56.632Z,13.03
2019-05-09T02:31:56.623Z,12.84
2019-05-09T02:32:56.605Z,12.74
2019-05-09T02:33:56.603Z,12.84
2019-05-09T02:34:56.596Z,12.74
2019-05-09T02:36:01.286Z,13.03
2019-05-09T02:36:58.730Z,12.93
2019-05-09T02:37:58.621Z,13.03
2019-05-09T02:38:59.053Z,12.74
2019-05-09T02:39:59.222Z,12.93
2019-05-09T02:40:59.282Z,12.93
2019-05-09T02:42:07.638Z,13.12
2019-05-09T02:42:59.047Z,13.12
2019-05-09T02:43:58.583Z,13.12
2019-05-09T02:44:59.291Z,13.12
2019-05-09T02:45:59.526Z,13.02
2019-05-09T02:46:58.808Z,13.02
2019-05-09T02:47:58.788Z,13.02
2019-05-09T02:48:59.176Z,13.12
2019-05-09T02:49:58.933Z,12.27
2019-05-09T02:50:59.816Z,12.75
2019-05-09T02:51:59.105Z,18.46
2019-05-09T02:52:59.032Z,28.08
2019-05-09T02:53:58.554Z,32.45
2019-05-09T02:54:58.389Z,35.31
2019-05-09T02:55:58.493Z,36.93
2019-05-09T02:56:57.997Z,37.49
2019-05-09T02:57:59.039Z,38.92
2019-05-09T02:58:58.947Z,39.69
2019-05-09T02:59:59.000Z,40.06
2019-05-09T03:00:59.462Z,41.40
2019-05-09T03:01:58.520Z,42.07
2019-05-09T03:02:59.228Z,42.92
2019-05-09T03:03:58.887Z,43.11
2019-05-09T03:04:58.163Z,44.06
2019-05-09T03:05:59.466Z,44.92
2019-05-09T03:06:59.545Z,44.73
2019-05-09T03:07:58.419Z,45.49
2019-05-09T03:08:59.089Z,45.87
2019-05-09T03:09:58.274Z,46.25
2019-05-09T03:10:58.864Z,47.49
2019-05-09T03:11:59.069Z,47.02
2019-05-09T03:12:59.162Z,47.39
2019-05-09T03:13:58.656Z,47.58
2019-05-09T03:14:58.715Z,47.78
2019-05-09T03:15:58.629Z,47.49
2019-05-09T03:16:58.677Z,48.63
2019-05-09T03:17:59.487Z,48.44
2019-05-09T03:18:58.488Z,48.25
2019-05-09T03:19:58.583Z,48.73
2019-05-09T03:20:58.536Z,48.25
2019-05-09T03:21:58.463Z,48.44
2019-05-09T03:22:58.342Z,49.30
2019-05-09T03:23:58.889Z,49.49
2019-05-09T03:24:58.856Z,50.15
2019-05-09T03:25:58.865Z,49.68
2019-05-09T03:26:59.246Z,49.68
2019-05-09T03:27:58.676Z,48.54
2019-05-09T03:28:59.172Z,50.25
2019-05-09T03:29:58.779Z,48.63
2019-05-09T03:30:59.166Z,49.49
2019-05-09T03:31:59.735Z,49.87
2019-05-09T03:32:59.397Z,49.87
2019-05-09T03:33:59.158Z,50.15
2019-05-09T03:34:57.934Z,50.51
2019-05-09T03:35:57.419Z,50.32
2019-05-09T03:36:58.032Z,51.49
2019-05-09T03:37:57.220Z,50.79
2019-05-09T03:38:57.831Z,51.18
2019-05-09T03:39:57.975Z,50.70
2019-05-09T03:40:57.905Z,50.42
2019-05-09T03:41:57.415Z,51.37
2019-05-09T03:42:57.463Z,51.75
2019-05-09T03:43:58.345Z,52.32
2019-05-09T03:44:58.085Z,52.13
2019-05-09T03:45:58.292Z,51.93
2019-05-09T03:46:58.096Z,51.93
2019-05-09T03:47:58.178Z,52.70
2019-05-09T03:48:58.133Z,53.55
2019-05-09T03:49:55.870Z,53.27
2019-05-09T03:50:57.718Z,53.36
2019-05-09T03:51:55.852Z,54.41
2019-05-09T03:52:57.862Z,54.60
2019-05-09T03:53:57.593Z,55.46
2019-05-09T03:54:57.799Z,54.60
2019-05-09T03:55:57.624Z,53.36
2019-05-09T03:56:57.220Z,54.60
2019-05-09T03:57:57.939Z,54.32
2019-05-09T03:58:57.748Z,54.60
2019-05-09T03:59:57.273Z,54.13
2019-05-09T04:00:57.784Z,54.41
2019-05-09T04:01:55.758Z,53.84
2019-05-09T04:02:57.891Z,53.46
2019-05-09T04:03:55.732Z,53.17
2019-05-09T04:04:57.666Z,53.55
2019-05-09T04:06:02.125Z,54.60
2019-05-09T04:06:57.953Z,56.51
2019-05-09T04:07:55.699Z,56.41
2019-05-09T04:08:55.688Z,56.12
2019-05-09T04:09:55.680Z,56.31
2019-05-09T04:10:58.398Z,55.65
2019-05-09T04:11:58.411Z,55.83
2019-05-09T04:12:57.175Z,55.17
2019-05-09T04:13:57.999Z,56.03
2019-05-09T04:14:58.256Z,55.27
2019-05-09T04:15:55.621Z,56.41
2019-05-09T04:16:57.522Z,56.41
2019-05-09T04:17:57.829Z,57.07
2019-05-09T04:18:57.962Z,57.26
2019-05-09T04:19:57.749Z,56.88
2019-05-09T04:20:57.346Z,57.26
2019-05-09T04:21:57.583Z,56.12
2019-05-09T04:22:59.264Z,55.93
2019-05-09T04:23:55.540Z,56.70
2019-05-09T04:24:57.477Z,56.98
2019-05-09T04:25:55.521Z,56.70
2019-05-09T04:26:57.466Z,56.41
2019-05-09T04:27:55.512Z,56.41
2019-05-09T04:28:57.651Z,56.98
2019-05-09T04:29:57.414Z,56.41
2019-05-09T04:30:55.474Z,57.26
2019-05-09T04:31:57.432Z,56.79
2019-05-09T04:32:55.455Z,56.12
2019-05-09T04:33:57.357Z,56.31
2019-05-09T04:34:57.732Z,56.79
2019-05-09T04:35:57.764Z,55.93
2019-05-09T04:36:57.439Z,56.41
2019-05-09T04:37:55.406Z,54.98
2019-05-09T04:38:57.471Z,56.31
2019-05-09T04:39:59.553Z,57.17
2019-05-09T04:40:55.375Z,57.45
2019-05-09T04:42:03.672Z,57.17
2019-05-09T04:43:08.902Z,57.55
2019-05-09T04:43:57.378Z,57.17
2019-05-09T04:44:57.318Z,57.17
2019-05-09T04:45:55.324Z,56.31
2019-05-09T04:47:00.066Z,56.22
2019-05-09T04:47:57.690Z,54.69
2019-05-09T04:48:59.535Z,55.27
2019-05-09T04:49:55.288Z,56.22
2019-05-09T04:50:57.427Z,57.17
2019-05-09T04:51:55.271Z,57.74
2019-05-09T04:52:55.263Z,59.45
2019-05-09T04:53:55.251Z,57.84
2019-05-09T04:54:57.465Z,58.22
2019-05-09T04:55:55.231Z,59.83
2019-05-09T04:56:57.240Z,60.02
2019-05-09T04:57:57.229Z,58.69
2019-05-09T04:58:55.202Z,58.98
2019-05-09T04:59:57.404Z,58.98
2019-05-09T05:00:57.226Z,57.74
2019-05-09T05:01:55.172Z,57.65
2019-05-09T05:02:55.162Z,59.74
2019-05-09T05:03:57.193Z,58.98
2019-05-09T05:04:55.142Z,58.69
2019-05-09T05:05:55.136Z,58.59
2019-05-09T05:06:55.122Z,58.50
2019-05-09T05:07:57.233Z,57.84
2019-05-09T05:08:55.107Z,58.59
2019-05-09T05:09:55.093Z,57.48
2019-05-09T05:10:55.088Z,57.39
2019-05-09T05:11:55.077Z,57.29
2019-05-09T05:12:57.210Z,57.77
2019-05-09T05:13:55.054Z,57.20
2019-05-09T05:14:55.049Z,59.29
2019-05-09T05:15:55.041Z,58.62
2019-05-09T05:16:58.237Z,61.38
2019-05-09T05:17:55.025Z,61.96
2019-05-09T05:18:55.009Z,61.29
2019-05-09T05:19:55.005Z,60.91
2019-05-09T05:20:54.996Z,60.44
2019-05-09T05:21:54.984Z,61.80
2019-05-09T05:22:54.979Z,51.58
2019-05-09T05:23:54.967Z,47.75
2019-05-09T05:24:55.864Z,43.85
2019-05-09T05:25:54.950Z,48.63
2019-05-09T05:26:54.940Z,42.35
2019-05-09T05:27:54.930Z,47.68
2019-05-09T05:28:54.928Z,45.40
2019-05-09T05:29:54.917Z,44.82
2019-05-09T05:30:54.908Z,51.14
2019-05-09T05:31:54.900Z,62.85
2019-05-09T05:32:54.890Z,65.89
2019-05-09T05:33:54.886Z,66.27
2019-05-09T05:34:54.877Z,60.53
2019-05-09T05:35:56.838Z,51.82
2019-05-09T05:36:54.863Z,66.97
2019-05-09T05:37:54.857Z,73.07
2019-05-09T05:38:54.852Z,73.65
2019-05-09T05:39:54.839Z,63.83
2019-05-09T05:40:54.832Z,60.37
2019-05-09T05:41:54.827Z,75.93
2019-05-09T05:42:54.815Z,74.02
2019-05-09T05:43:54.810Z,76.21
2019-05-09T05:44:54.804Z,63.60
2019-05-09T05:45:54.802Z,61.13
2019-05-09T05:46:54.804Z,61.61
2019-05-09T05:47:54.779Z,63.73
2019-05-09T05:48:54.773Z,58.94
2019-05-09T05:49:54.766Z,71.17
2019-05-09T05:50:54.764Z,79.78
2019-05-09T05:51:54.756Z,86.45
2019-05-09T05:52:54.751Z,79.40
2019-05-09T05:53:54.742Z,80.16
2019-05-09T05:54:54.734Z,81.68
2019-05-09T05:55:54.730Z,87.31
2019-05-09T05:56:54.720Z,86.07
2019-05-09T05:57:54.714Z,87.16
2019-05-09T05:58:54.708Z,87.26
2019-05-09T05:59:54.699Z,93.55
2019-05-09T06:00:54.698Z,95.08
2019-05-09T06:01:54.696Z,94.51
2019-05-09T06:02:54.698Z,88.40
2019-05-09T06:03:54.677Z,93.36
2019-05-09T06:04:54.674Z,89.93
2019-05-09T06:05:54.667Z,91.55
2019-05-09T06:06:54.660Z,89.93
2019-05-09T06:07:54.656Z,87.35
2019-05-09T06:08:54.643Z,97.22
2019-05-09T06:09:54.639Z,96.75
2019-05-09T06:10:54.638Z,96.94
2019-05-09T06:11:54.632Z,97.22
2019-05-09T06:12:54.625Z,96.94
2019-05-09T06:14:03.950Z,99.99
2019-05-09T06:14:54.615Z,99.99
2019-05-09T06:15:54.625Z,99.99
2019-05-09T06:16:54.615Z,99.99
2019-05-09T06:17:54.602Z,98.94
2019-05-09T06:18:54.593Z,98.18
2019-05-09T06:19:54.593Z,99.99
2019-05-09T06:20:54.589Z,94.07
2019-05-09T06:21:54.581Z,99.99
2019-05-09T06:22:54.574Z,91.60
2019-05-09T06:23:54.572Z,99.61
2019-05-09T06:24:54.567Z,99.99
2019-05-09T06:25:54.570Z,99.99
2019-05-09T06:26:54.557Z,98.75
2019-05-09T06:27:54.596Z,99.99
2019-05-09T06:28:54.543Z,99.99
2019-05-09T06:29:54.535Z,99.23
2019-05-09T06:30:54.536Z,99.99
2019-05-09T06:31:54.568Z,99.99
2019-05-09T06:32:54.522Z,99.99
2019-05-09T06:33:54.514Z,99.99
2019-05-09T06:34:54.510Z,99.99
2019-05-09T06:35:54.502Z,99.99
2019-05-09T06:36:54.515Z,99.99
2019-05-09T06:37:54.543Z,99.99
2019-05-09T06:38:54.511Z,99.99
2019-05-09T06:39:54.486Z,99.99
2019-05-09T06:40:54.469Z,99.99
2019-05-09T06:41:57.356Z,99.99
2019-05-09T06:42:54.463Z,99.99
2019-05-09T06:44:09.506Z,99.99
2019-05-09T06:44:54.456Z,99.99
2019-05-09T06:45:54.447Z,99.99
2019-05-09T06:46:54.439Z,99.99
2019-05-09T06:47:54.437Z,99.99
2019-05-09T06:48:54.439Z,99.99
2019-05-09T06:49:54.424Z,99.99
2019-05-09T06:50:54.420Z,99.99
2019-05-09T06:51:54.416Z,99.99
2019-05-09T06:52:54.413Z,99.99
2019-05-09T06:53:54.406Z,99.99
2019-05-09T06:54:54.398Z,99.99
2019-05-09T06:55:54.392Z,99.99
2019-05-09T06:56:54.386Z,99.99
2019-05-09T06:57:54.383Z,99.99
2019-05-09T06:58:54.379Z,99.99
2019-05-09T06:59:54.400Z,99.99
2019-05-09T07:00:54.370Z,99.99
2019-05-09T07:01:54.366Z,99.99
2019-05-09T07:02:57.444Z,99.99
2019-05-09T07:03:54.358Z,99.99
2019-05-09T07:04:54.366Z,99.99
2019-05-09T07:05:54.348Z,99.99
2019-05-09T07:06:54.347Z,99.99
2019-05-09T07:07:54.343Z,99.99
2019-05-09T07:08:54.348Z,99.99
2019-05-09T07:09:54.331Z,99.99
2019-05-09T07:10:54.336Z,99.99
2019-05-09T07:11:54.333Z,99.99
2019-05-09T07:12:54.318Z,99.99
2019-05-09T07:13:54.318Z,99.99
2019-05-09T07:14:54.321Z,99.99
2019-05-09T07:15:54.315Z,99.99
2019-05-09T07:16:54.320Z,99.99
2019-05-09T07:17:54.325Z,99.99
2019-05-09T07:18:54.302Z,99.99
2019-05-09T07:19:54.312Z,99.99
2019-05-09T07:20:54.296Z,99.99
2019-05-09T07:21:54.370Z,99.99
2019-05-09T07:22:54.294Z,99.99
2019-05-09T07:23:54.295Z,99.99
2019-05-09T07:24:58.016Z,99.99
2019-05-09T07:25:54.292Z,99.99
2019-05-09T07:26:54.286Z,99.99
2019-05-09T07:27:54.281Z,99.99
2019-05-09T07:28:54.277Z,99.99
2019-05-09T07:29:54.282Z,99.99
2019-05-09T07:30:54.295Z,99.99
2019-05-09T07:31:54.286Z,99.99
2019-05-09T07:32:54.273Z,99.99
2019-05-09T07:33:54.279Z,99.99
2019-05-09T07:34:54.264Z,99.99
2019-05-09T07:35:54.267Z,99.99
2019-05-09T07:36:54.265Z,99.99
2019-05-09T07:37:54.265Z,99.77
2019-05-09T07:38:54.267Z,99.99
2019-05-09T07:39:54.264Z,99.99
2019-05-09T07:40:54.265Z,99.99
2019-05-09T07:41:54.256Z,99.99
2019-05-09T07:42:54.256Z,99.99
2019-05-09T07:43:54.258Z,99.99
2019-05-09T07:44:54.279Z,99.99
2019-05-09T07:45:54.257Z,99.10
2019-05-09T07:46:54.243Z,99.99
2019-05-09T07:47:54.239Z,99.99
2019-05-09T07:48:54.241Z,99.99
2019-05-09T07:49:54.236Z,99.99
2019-05-09T07:50:54.264Z,99.99
2019-05-09T07:51:54.227Z,99.99
2019-05-09T07:52:54.224Z,99.99
2019-05-09T07:53:54.221Z,99.99
2019-05-09T07:54:54.223Z,99.99
2019-05-09T07:55:54.223Z,99.99
2019-05-09T07:56:54.213Z,99.99
2019-05-09T07:57:55.570Z,99.99
2019-05-09T07:58:54.210Z,99.99
2019-05-09T07:59:54.200Z,99.99
2019-05-09T08:00:54.205Z,99.99
2019-05-09T08:01:54.195Z,99.99
2019-05-09T08:02:54.191Z,99.99
2019-05-09T08:03:54.196Z,99.99
2019-05-09T08:04:54.184Z,99.99
2019-05-09T08:05:54.181Z,99.99
2019-05-09T08:06:54.176Z,99.99
2019-05-09T08:07:54.171Z,99.99
2019-05-09T08:08:54.163Z,99.99
2019-05-09T08:09:54.165Z,99.99
2019-05-09T08:10:54.170Z,99.99
2019-05-09T08:11:54.157Z,99.99
2019-05-09T08:12:54.150Z,99.99
2019-05-09T08:13:54.151Z,93.69
2019-05-09T08:15:07.604Z,97.61
2019-05-09T08:15:54.148Z,92.44
2019-05-09T08:16:54.140Z,90.62
2019-05-09T08:17:54.160Z,97.80
2019-05-09T08:18:54.132Z,99.99
2019-05-09T08:19:54.130Z,96.03
2019-05-09T08:20:54.127Z,93.83
2019-05-09T08:21:54.127Z,91.34
2019-05-09T08:22:58.678Z,92.39
2019-05-09T08:23:54.131Z,92.87
2019-05-09T08:24:54.119Z,88.37
2019-05-09T08:25:54.122Z,87.21
2019-05-09T08:26:54.115Z,83.48
2019-05-09T08:27:54.113Z,83.38
2019-05-09T08:28:54.110Z,88.46
2019-05-09T08:29:54.106Z,85.93
2019-05-09T08:30:54.905Z,86.31
2019-05-09T08:31:54.104Z,92.92
2019-05-09T08:32:54.115Z,90.23
2019-05-09T08:33:54.102Z,91.00
2019-05-09T08:34:54.099Z,95.51
2019-05-09T08:35:54.096Z,93.78
2019-05-09T08:36:54.085Z,92.44
2019-05-09T08:37:54.094Z,96.66
2019-05-09T08:38:54.088Z,97.71
2019-05-09T08:39:54.080Z,91.96
2019-05-09T08:40:54.076Z,94.17
2019-05-09T08:41:54.076Z,93.30
2019-05-09T08:42:54.072Z,90.81
2019-05-09T08:43:54.076Z,92.25
2019-05-09T08:44:54.065Z,92.44
2019-05-09T08:45:54.067Z,89.52
2019-05-09T08:46:54.058Z,98.14
2019-05-09T08:47:54.056Z,99.99
2019-05-09T08:48:54.099Z,99.99
2019-05-09T08:49:54.066Z,99.99
2019-05-09T08:50:54.047Z,99.99
2019-05-09T08:52:09.232Z,99.63
2019-05-09T08:52:54.041Z,95.36
2019-05-09T08:53:54.034Z,93.54
2019-05-09T08:54:54.033Z,95.75
2019-05-09T08:55:54.029Z,97.14
2019-05-09T08:56:54.026Z,96.75
2019-05-09T08:57:54.025Z,88.89
2019-05-09T08:58:57.789Z,85.82
2019-05-09T08:59:54.033Z,89.56
2019-05-09T09:00:54.022Z,87.41
2019-05-09T09:02:12.281Z,83.95
2019-05-09T09:02:54.005Z,86.35
2019-05-09T09:03:54.007Z,89.80
2019-05-09T09:04:54.005Z,92.77
2019-05-09T09:05:54.003Z,96.51
2019-05-09T09:06:54.341Z,85.58
2019-05-09T09:07:57.632Z,83.81
2019-05-09T09:08:53.988Z,89.65
2019-05-09T09:09:53.988Z,84.86
2019-05-09T09:10:53.986Z,85.44
2019-05-09T09:11:53.980Z,84.71
2019-05-09T09:12:53.980Z,83.27
2019-05-09T09:13:53.977Z,81.64
2019-05-09T09:14:53.970Z,80.11
2019-05-09T09:16:11.763Z,79.44
2019-05-09T09:16:53.971Z,83.27
2019-05-09T09:17:53.974Z,84.04
2019-05-09T09:18:53.989Z,79.14
2019-05-09T09:19:53.960Z,79.44
2019-05-09T09:20:53.968Z,88.31
2019-05-09T09:21:56.983Z,83.03
2019-05-09T09:22:53.955Z,81.92
2019-05-09T09:23:53.955Z,81.43
2019-05-09T09:24:53.952Z,88.49
2019-05-09T09:25:53.962Z,84.80
2019-05-09T09:26:53.948Z,83.20
2019-05-09T09:27:53.951Z,85.18
2019-05-09T09:28:53.948Z,83.84
2019-05-09T09:29:53.949Z,76.64
2019-05-09T09:30:53.952Z,77.46
2019-05-09T09:31:53.938Z,79.96
2019-05-09T09:32:53.940Z,80.43
2019-05-09T09:33:53.943Z,80.24
2019-05-09T09:34:53.945Z,82.16
2019-05-09T09:35:53.955Z,83.89
2019-05-09T09:36:53.932Z,80.01
2019-05-09T09:37:53.932Z,89.41
2019-05-09T09:38:53.932Z,92.29
2019-05-09T09:39:53.931Z,92.00
2019-05-09T09:40:53.930Z,90.08
2019-05-09T09:41:53.922Z,87.68
2019-05-09T09:42:53.920Z,94.40
2019-05-09T09:43:53.918Z,86.05
2019-05-09T09:44:53.913Z,92.39
2019-05-09T09:46:07.171Z,85.28
2019-05-09T09:46:53.913Z,79.78
2019-05-09T09:47:53.912Z,81.31
2019-05-09T09:48:53.900Z,79.01
2019-05-09T09:49:55.069Z,83.23
2019-05-09T09:50:53.900Z,86.21
2019-05-09T09:51:53.900Z,92.77
2019-05-09T09:52:53.890Z,96.75
2019-05-09T09:53:53.889Z,98.48
2019-05-09T09:54:53.895Z,84.77
2019-05-09T09:55:53.887Z,92.54
2019-05-09T09:56:53.877Z,93.73
2019-05-09T09:57:53.881Z,91.05
2019-05-09T09:58:53.871Z,92.96
2019-05-09T09:59:53.871Z,88.06
2019-05-09T10:00:53.864Z,78.53
2019-05-09T10:01:53.860Z,75.21
2019-05-09T10:02:53.859Z,77.33
2019-05-09T10:03:53.858Z,75.88
2019-05-09T10:04:53.861Z,74.40
2019-05-09T10:05:53.854Z,73.63
2019-05-09T10:06:53.869Z,72.96
2019-05-09T10:07:53.853Z,70.81
2019-05-09T10:08:53.850Z,71.35
2019-05-09T10:09:53.847Z,74.33
2019-05-09T10:10:53.846Z,73.56
2019-05-09T10:11:56.966Z,72.50
2019-05-09T10:12:53.853Z,73.66
2019-05-09T10:13:53.841Z,74.04
2019-05-09T10:14:53.839Z,74.39
2019-05-09T10:15:53.841Z,75.06
2019-05-09T10:16:53.833Z,71.80
2019-05-09T10:17:53.839Z,76.31
2019-05-09T10:18:53.833Z,76.50
2019-05-09T10:19:53.829Z,77.08
2019-05-09T10:20:53.828Z,74.96
2019-05-09T10:21:53.822Z,75.73
2019-05-09T10:22:59.760Z,74.73
2019-05-09T10:23:53.829Z,75.98
2019-05-09T10:24:53.820Z,73.77
2019-05-09T10:25:53.813Z,73.49
2019-05-09T10:26:53.807Z,76.84
2019-05-09T10:27:53.811Z,76.14
2019-05-09T10:28:53.807Z,79.97
2019-05-09T10:29:53.798Z,75.95
2019-05-09T10:30:53.793Z,75.90
2019-05-09T10:31:53.797Z,89.13
2019-05-09T10:32:53.783Z,89.32
2019-05-09T10:33:53.784Z,81.75
2019-05-09T10:34:53.787Z,83.00
2019-05-09T10:35:53.793Z,79.97
2019-05-09T10:36:53.770Z,85.01
2019-05-09T10:37:53.773Z,81.56
2019-05-09T10:38:53.771Z,76.48
2019-05-09T10:39:53.766Z,80.35
2019-05-09T10:40:53.759Z,85.11
2019-05-09T10:41:53.762Z,79.16
2019-05-09T10:42:53.749Z,77.48
2019-05-09T10:43:53.749Z,84.72
2019-05-09T10:44:53.738Z,78.88
2019-05-09T10:45:53.737Z,82.04
2019-05-09T10:46:58.894Z,80.99
2019-05-09T10:47:53.729Z,82.32
2019-05-09T10:48:53.731Z,79.45
2019-05-09T10:49:53.719Z,79.93
2019-05-09T10:50:54.803Z,82.42
2019-05-09T10:51:53.714Z,87.21
2019-05-09T10:52:53.708Z,85.44
2019-05-09T10:53:53.699Z,80.26
2019-05-09T10:54:53.697Z,79.88
2019-05-09T10:55:53.691Z,78.38
2019-05-09T10:56:53.685Z,76.84
2019-05-09T10:57:53.691Z,73.58
2019-05-09T10:58:53.679Z,76.65
2019-05-09T10:59:53.676Z,75.21
2019-05-09T11:00:53.674Z,76.46
2019-05-09T11:01:53.676Z,75.79
2019-05-09T11:02:53.662Z,76.17
2019-05-09T11:03:53.665Z,73.39
2019-05-09T11:04:53.666Z,77.29
2019-05-09T11:05:53.659Z,74.60
2019-05-09T11:06:53.650Z,77.90
2019-05-09T11:07:53.645Z,78.23
2019-05-09T11:08:53.642Z,78.80
2019-05-09T11:09:53.638Z,75.96
2019-05-09T11:10:53.632Z,71.58
2019-05-09T11:11:53.634Z,72.96
2019-05-09T11:12:53.630Z,72.67
2019-05-09T11:13:53.628Z,74.98
2019-05-09T11:14:53.622Z,75.07
2019-05-09T11:15:53.650Z,73.83
2019-05-09T11:17:06.840Z,70.37
2019-05-09T11:17:53.617Z,70.46
2019-05-09T11:18:53.614Z,73.83
2019-05-09T11:19:53.606Z,73.83
2019-05-09T11:20:53.609Z,71.48
2019-05-09T11:21:53.604Z,72.64
2019-05-09T11:22:53.606Z,76.57
2019-05-09T11:23:53.600Z,75.00
2019-05-09T11:24:53.602Z,72.89
2019-05-09T11:25:53.605Z,70.20
2019-05-09T11:26:55.530Z,73.66
2019-05-09T11:28:06.708Z,71.45
2019-05-09T11:28:53.607Z,71.35
2019-05-09T11:29:53.585Z,69.72
2019-05-09T11:30:53.583Z,71.35
2019-05-09T11:31:53.579Z,69.91
2019-05-09T11:32:53.580Z,76.57
2019-05-09T11:33:53.579Z,69.85
2019-05-09T11:34:53.613Z,71.55
2019-05-09T11:35:53.573Z,73.11
2019-05-09T11:36:53.602Z,71.55
2019-05-09T11:37:53.566Z,71.45
2019-05-09T11:38:53.573Z,71.77
2019-05-09T11:39:53.563Z,70.39
2019-05-09T11:40:53.558Z,70.20
2019-05-09T11:41:53.560Z,69.62
2019-05-09T11:42:53.554Z,68.47
2019-05-09T11:43:53.552Z,68.47
2019-05-09T11:44:53.546Z,68.57
2019-05-09T11:45:53.547Z,68.34
2019-05-09T11:46:53.543Z,67.00
2019-05-09T11:47:53.547Z,68.91
2019-05-09T11:48:53.547Z,67.86
2019-05-09T11:49:53.536Z,68.44
2019-05-09T11:50:53.537Z,68.34
2019-05-09T11:51:53.530Z,66.23
2019-05-09T11:52:53.521Z,69.49
2019-05-09T11:53:53.526Z,68.66
2019-05-09T11:54:53.519Z,68.66
2019-05-09T11:55:53.547Z,72.41
2019-05-09T11:56:53.508Z,69.34
2019-05-09T11:57:53.509Z,69.53
2019-05-09T11:58:53.507Z,70.49
2019-05-09T11:59:53.503Z,67.99
2019-05-09T12:00:53.506Z,64.92
2019-05-09T12:01:53.494Z,63.25
2019-05-09T12:02:53.491Z,64.40
2019-05-09T12:03:53.485Z,65.75
2019-05-09T12:04:53.482Z,66.10
2019-05-09T12:05:53.480Z,68.50
2019-05-09T12:06:53.477Z,69.36
2019-05-09T12:07:53.477Z,69.17
2019-05-09T12:08:53.465Z,68.21
2019-05-09T12:09:53.475Z,67.35
2019-05-09T12:10:53.460Z,69.93
2019-05-09T12:11:53.460Z,73.20
2019-05-09T12:12:53.453Z,70.51
2019-05-09T12:13:53.448Z,71.28
2019-05-09T12:14:53.447Z,71.80
2019-05-09T12:15:53.444Z,72.95
2019-05-09T12:16:53.440Z,68.82
2019-05-09T12:17:58.391Z,69.87
2019-05-09T12:18:53.432Z,68.82
2019-05-09T12:20:09.093Z,67.29
2019-05-09T12:20:53.426Z,65.46
2019-05-09T12:21:53.419Z,66.90
2019-05-09T12:22:53.417Z,68.85
2019-05-09T12:23:53.411Z,68.53
2019-05-09T12:24:54.131Z,67.32
2019-05-09T12:25:53.398Z,66.84
2019-05-09T12:26:53.402Z,67.80
2019-05-09T12:27:53.394Z,67.03
2019-05-09T12:28:53.396Z,67.61
2019-05-09T12:29:53.394Z,66.55
2019-05-09T12:30:53.384Z,66.26
2019-05-09T12:31:53.558Z,67.22
2019-05-09T12:32:53.378Z,69.91
2019-05-09T12:33:53.376Z,67.32
2019-05-09T12:34:53.372Z,68.76
2019-05-09T12:35:53.373Z,66.26
2019-05-09T12:36:53.363Z,64.92
2019-05-09T12:37:53.363Z,68.57
2019-05-09T12:38:53.443Z,66.26
2019-05-09T12:39:53.355Z,68.66
2019-05-09T12:40:53.346Z,66.93
2019-05-09T12:41:53.347Z,68.76
2019-05-09T12:42:53.359Z,69.53
2019-05-09T12:43:53.342Z,66.84
2019-05-09T12:44:53.330Z,64.53
2019-05-09T12:45:53.333Z,65.88
2019-05-09T12:46:53.331Z,65.40
2019-05-09T12:48:06.109Z,63.86
2019-05-09T12:48:53.325Z,63.67
2019-05-09T12:49:53.315Z,64.40
2019-05-09T12:50:53.313Z,64.02
2019-05-09T12:51:53.312Z,69.97
2019-05-09T12:52:53.307Z,67.57